sensor_id;sensor_type;location;lat;lon;timestamp;P1;durP1;ratioP1;P2;durP2;ratioP2
46266;SDS011;31998;48.798;15.066;2023-02-01T00:00:05;0.57;;;0.57;;
46266;SDS011;31998;48.798;15.066;2023-02-01T00:02:31;0.80;;;0.80;;
46266;SDS011;31998;48.798;15.066;2023-02-01T00:04:56;3.23;;;0.70;;
46266;SDS011;31998;48.798;15.066;2023-02-01T00:07:22;0.60;;;0.50;;
46266;SDS011;31998;48.798;15.066;2023-02-01T00:09:47;1.47;;;1.33;;
46266;SDS011;31998;48.798;15.066;2023-02-01T00:12:12;0.70;;;0.70;;
46266;SDS011;31998;48.798;15.066;2023-02-01T00:14:38;0.60;;;0.60;;
46266;SDS011;31998;48.798;15.066;2023-02-01T00:17:07;0.80;;;0.80;;
46266;SDS011;31998;48.798;15.066;2023-02-01T00:19:33;0.63;;;0.63;;
46266;SDS011;31998;48.798;15.066;2023-02-01T00:21:59;0.60;;;0.60;;
46266;SDS011;31998;48.798;15.066;2023-02-01T00:24:25;0.60;;;0.60;;
46266;SDS011;31998;48.798;15.066;2023-02-01T00:26:50;0.50;;;0.50;;
46266;SDS011;31998;48.798;15.066;2023-02-01T00:29:17;0.67;;;0.67;;
46266;SDS011;31998;48.798;15.066;2023-02-01T00:31:44;0.40;;;0.40;;
46266;SDS011;31998;48.798;15.066;2023-02-01T00:34:11;0.50;;;0.50;;
46266;SDS011;31998;48.798;15.066;2023-02-01T00:36:38;0.80;;;0.80;;
46266;SDS011;31998;48.798;15.066;2023-02-01T00:39:04;0.50;;;0.50;;
46266;SDS011;31998;48.798;15.066;2023-02-01T00:41:29;0.80;;;0.80;;
46266;SDS011;31998;48.798;15.066;2023-02-01T00:43:55;0.73;;;0.60;;
46266;SDS011;31998;48.798;15.066;2023-02-01T00:46:20;0.50;;;0.50;;
46266;SDS011;31998;48.798;15.066;2023-02-01T00:48:46;3.10;;;0.73;;
46266;SDS011;31998;48.798;15.066;2023-02-01T00:51:13;0.70;;;0.70;;
46266;SDS011;31998;48.798;15.066;2023-02-01T00:53:42;0.80;;;0.80;;
46266;SDS011;31998;48.798;15.066;2023-02-01T00:56:08;1.00;;;0.80;;
46266;SDS011;31998;48.798;15.066;2023-02-01T00:58:34;0.80;;;0.80;;
46266;SDS011;31998;48.798;15.066;2023-02-01T01:01:07;0.70;;;0.70;;
46266;SDS011;31998;48.798;15.066;2023-02-01T01:03:38;0.60;;;0.60;;
46266;SDS011;31998;48.798;15.066;2023-02-01T01:06:08;0.90;;;0.90;;
46266;SDS011;31998;48.798;15.066;2023-02-01T01:08:34;0.97;;;0.60;;
46266;SDS011;31998;48.798;15.066;2023-02-01T01:11:04;1.00;;;1.00;;
46266;SDS011;31998;48.798;15.066;2023-02-01T01:13:32;1.10;;;0.60;;
46266;SDS011;31998;48.798;15.066;2023-02-01T01:15:59;0.93;;;0.93;;
46266;SDS011;31998;48.798;15.066;2023-02-01T01:18:27;1.10;;;1.10;;
46266;SDS011;31998;48.798;15.066;2023-02-01T01:20:54;0.73;;;0.70;;
46266;SDS011;31998;48.798;15.066;2023-02-01T01:23:19;0.93;;;0.93;;
46266;SDS011;31998;48.798;15.066;2023-02-01T01:25:44;0.73;;;0.73;;
46266;SDS011;31998;48.798;15.066;2023-02-01T01:28:10;0.93;;;0.93;;
46266;SDS011;31998;48.798;15.066;2023-02-01T01:30:35;0.80;;;0.80;;
46266;SDS011;31998;48.798;15.066;2023-02-01T01:33:00;0.63;;;0.63;;
46266;SDS011;31998;48.798;15.066;2023-02-01T01:35:28;1.03;;;0.97;;
46266;SDS011;31998;48.798;15.066;2023-02-01T01:37:54;1.10;;;1.10;;
46266;SDS011;31998;48.798;15.066;2023-02-01T01:40:20;1.13;;;1.13;;
46266;SDS011;31998;48.798;15.066;2023-02-01T01:42:45;1.20;;;1.20;;
46266;SDS011;31998;48.798;15.066;2023-02-01T01:45:30;0.90;;;0.90;;
46266;SDS011;31998;48.798;15.066;2023-02-01T01:53:06;0.70;;;0.70;;
46266;SDS011;31998;48.798;15.066;2023-02-01T01:55:37;1.30;;;1.30;;
46266;SDS011;31998;48.798;15.066;2023-02-01T01:58:08;0.97;;;0.97;;
46266;SDS011;31998;48.798;15.066;2023-02-01T02:00:37;0.90;;;0.67;;
46266;SDS011;31998;48.798;15.066;2023-02-01T02:03:06;1.00;;;1.00;;
46266;SDS011;31998;48.798;15.066;2023-02-01T02:05:41;2.53;;;0.90;;
46266;SDS011;31998;48.798;15.066;2023-02-01T02:08:07;1.00;;;1.00;;
46266;SDS011;31998;48.798;15.066;2023-02-01T02:10:32;1.00;;;0.77;;
46266;SDS011;31998;48.798;15.066;2023-02-01T02:13:16;0.60;;;0.60;;
46266;SDS011;31998;48.798;15.066;2023-02-01T02:15:45;0.80;;;0.80;;
46266;SDS011;31998;48.798;15.066;2023-02-01T02:18:32;1.73;;;0.90;;
46266;SDS011;31998;48.798;15.066;2023-02-01T02:21:06;2.40;;;0.70;;
46266;SDS011;31998;48.798;15.066;2023-02-01T02:26:48;0.53;;;0.53;;
46266;SDS011;31998;48.798;15.066;2023-02-01T02:37:40;1.13;;;1.13;;
46266;SDS011;31998;48.798;15.066;2023-02-01T02:40:17;0.93;;;0.93;;
46266;SDS011;31998;48.798;15.066;2023-02-01T02:42:52;1.03;;;1.03;;
46266;SDS011;31998;48.798;15.066;2023-02-01T02:48:38;1.10;;;1.10;;
46266;SDS011;31998;48.798;15.066;2023-02-01T02:51:09;1.17;;;1.17;;
46266;SDS011;31998;48.798;15.066;2023-02-01T02:54:06;1.00;;;1.00;;
46266;SDS011;31998;48.798;15.066;2023-02-01T02:56:54;0.90;;;0.90;;
46266;SDS011;31998;48.798;15.066;2023-02-01T02:59:42;2.87;;;1.00;;
46266;SDS011;31998;48.798;15.066;2023-02-01T03:02:27;2.40;;;0.73;;
46266;SDS011;31998;48.798;15.066;2023-02-01T03:05:12;1.13;;;1.00;;
46266;SDS011;31998;48.798;15.066;2023-02-01T03:15:59;2.73;;;1.30;;
46266;SDS011;31998;48.798;15.066;2023-02-01T03:21:09;1.43;;;1.43;;
46266;SDS011;31998;48.798;15.066;2023-02-01T03:23:41;3.20;;;1.37;;
46266;SDS011;31998;48.798;15.066;2023-02-01T03:26:11;1.07;;;1.07;;
46266;SDS011;31998;48.798;15.066;2023-02-01T03:28:41;4.00;;;1.77;;
46266;SDS011;31998;48.798;15.066;2023-02-01T03:31:10;2.03;;;1.83;;
46266;SDS011;31998;48.798;15.066;2023-02-01T03:33:36;1.40;;;1.40;;
46266;SDS011;31998;48.798;15.066;2023-02-01T03:36:09;1.40;;;1.40;;
46266;SDS011;31998;48.798;15.066;2023-02-01T03:46:20;1.60;;;1.60;;
46266;SDS011;31998;48.798;15.066;2023-02-01T03:48:52;2.70;;;1.43;;
46266;SDS011;31998;48.798;15.066;2023-02-01T03:51:19;1.60;;;1.60;;
46266;SDS011;31998;48.798;15.066;2023-02-01T03:53:47;1.93;;;1.83;;
46266;SDS011;31998;48.798;15.066;2023-02-01T03:56:14;1.80;;;1.70;;
46266;SDS011;31998;48.798;15.066;2023-02-01T03:58:43;1.60;;;1.60;;
46266;SDS011;31998;48.798;15.066;2023-02-01T04:01:23;1.50;;;1.50;;
46266;SDS011;31998;48.798;15.066;2023-02-01T04:03:48;2.23;;;2.03;;
46266;SDS011;31998;48.798;15.066;2023-02-01T04:06:14;1.40;;;1.40;;
46266;SDS011;31998;48.798;15.066;2023-02-01T04:08:40;1.77;;;1.77;;
46266;SDS011;31998;48.798;15.066;2023-02-01T04:11:05;1.70;;;1.70;;
46266;SDS011;31998;48.798;15.066;2023-02-01T04:13:31;1.70;;;1.60;;
46266;SDS011;31998;48.798;15.066;2023-02-01T04:15:56;2.50;;;2.30;;
46266;SDS011;31998;48.798;15.066;2023-02-01T04:18:21;2.10;;;2.00;;
46266;SDS011;31998;48.798;15.066;2023-02-01T04:20:47;1.73;;;1.73;;
46266;SDS011;31998;48.798;15.066;2023-02-01T04:23:12;1.50;;;1.50;;
46266;SDS011;31998;48.798;15.066;2023-02-01T04:25:37;1.63;;;1.63;;
46266;SDS011;31998;48.798;15.066;2023-02-01T04:28:03;1.80;;;1.80;;
46266;SDS011;31998;48.798;15.066;2023-02-01T04:30:29;2.27;;;2.27;;
46266;SDS011;31998;48.798;15.066;2023-02-01T04:32:55;2.80;;;2.70;;
46266;SDS011;31998;48.798;15.066;2023-02-01T04:35:20;2.17;;;1.97;;
46266;SDS011;31998;48.798;15.066;2023-02-01T04:37:46;2.50;;;2.30;;
46266;SDS011;31998;48.798;15.066;2023-02-01T04:40:12;7.80;;;2.20;;
46266;SDS011;31998;48.798;15.066;2023-02-01T04:42:37;2.80;;;2.23;;
46266;SDS011;31998;48.798;15.066;2023-02-01T04:45:03;1.57;;;1.47;;
46266;SDS011;31998;48.798;15.066;2023-02-01T04:47:29;2.30;;;1.93;;
46266;SDS011;31998;48.798;15.066;2023-02-01T04:49:54;2.47;;;1.23;;
46266;SDS011;31998;48.798;15.066;2023-02-01T04:52:19;1.80;;;1.70;;
46266;SDS011;31998;48.798;15.066;2023-02-01T04:54:45;1.90;;;1.80;;
46266;SDS011;31998;48.798;15.066;2023-02-01T04:57:10;1.27;;;1.27;;
46266;SDS011;31998;48.798;15.066;2023-02-01T04:59:38;1.03;;;1.03;;
46266;SDS011;31998;48.798;15.066;2023-02-01T05:02:04;2.20;;;1.50;;
46266;SDS011;31998;48.798;15.066;2023-02-01T05:04:30;1.00;;;1.00;;
46266;SDS011;31998;48.798;15.066;2023-02-01T05:06:55;1.30;;;1.30;;
46266;SDS011;31998;48.798;15.066;2023-02-01T05:09:20;1.30;;;1.30;;
46266;SDS011;31998;48.798;15.066;2023-02-01T05:11:46;1.10;;;1.10;;
46266;SDS011;31998;48.798;15.066;2023-02-01T05:14:30;1.10;;;1.10;;
46266;SDS011;31998;48.798;15.066;2023-02-01T05:16:56;5.10;;;1.70;;
46266;SDS011;31998;48.798;15.066;2023-02-01T05:19:21;1.43;;;1.43;;
46266;SDS011;31998;48.798;15.066;2023-02-01T05:21:47;3.33;;;1.50;;
46266;SDS011;31998;48.798;15.066;2023-02-01T05:24:12;1.37;;;1.37;;
46266;SDS011;31998;48.798;15.066;2023-02-01T05:26:41;1.30;;;1.20;;
46266;SDS011;31998;48.798;15.066;2023-02-01T05:29:07;1.30;;;1.20;;
46266;SDS011;31998;48.798;15.066;2023-02-01T05:31:33;2.23;;;2.00;;
46266;SDS011;31998;48.798;15.066;2023-02-01T05:33:59;3.07;;;2.10;;
46266;SDS011;31998;48.798;15.066;2023-02-01T05:36:24;2.00;;;1.90;;
46266;SDS011;31998;48.798;15.066;2023-02-01T05:38:50;1.87;;;1.50;;
46266;SDS011;31998;48.798;15.066;2023-02-01T05:41:15;2.07;;;1.97;;
46266;SDS011;31998;48.798;15.066;2023-02-01T05:43:40;1.70;;;1.70;;
46266;SDS011;31998;48.798;15.066;2023-02-01T05:46:06;2.43;;;2.00;;
46266;SDS011;31998;48.798;15.066;2023-02-01T05:48:31;1.80;;;1.80;;
46266;SDS011;31998;48.798;15.066;2023-02-01T05:50:56;2.30;;;1.90;;
46266;SDS011;31998;48.798;15.066;2023-02-01T05:53:22;1.50;;;1.50;;
46266;SDS011;31998;48.798;15.066;2023-02-01T05:55:47;1.80;;;1.80;;
46266;SDS011;31998;48.798;15.066;2023-02-01T05:58:13;2.93;;;1.97;;
46266;SDS011;31998;48.798;15.066;2023-02-01T06:00:38;1.93;;;1.83;;
46266;SDS011;31998;48.798;15.066;2023-02-01T06:03:04;2.07;;;1.73;;
46266;SDS011;31998;48.798;15.066;2023-02-01T06:05:30;1.50;;;1.50;;
46266;SDS011;31998;48.798;15.066;2023-02-01T06:07:55;2.70;;;2.50;;
46266;SDS011;31998;48.798;15.066;2023-02-01T06:10:21;1.83;;;1.83;;
46266;SDS011;31998;48.798;15.066;2023-02-01T06:12:47;2.20;;;2.10;;
46266;SDS011;31998;48.798;15.066;2023-02-01T06:15:12;1.70;;;1.60;;
46266;SDS011;31998;48.798;15.066;2023-02-01T06:17:40;1.40;;;1.40;;
46266;SDS011;31998;48.798;15.066;2023-02-01T06:20:06;1.60;;;1.50;;
46266;SDS011;31998;48.798;15.066;2023-02-01T06:22:32;1.70;;;1.70;;
46266;SDS011;31998;48.798;15.066;2023-02-01T06:24:58;2.10;;;1.90;;
46266;SDS011;31998;48.798;15.066;2023-02-01T06:27:26;1.70;;;1.70;;
46266;SDS011;31998;48.798;15.066;2023-02-01T06:29:51;1.43;;;1.43;;
46266;SDS011;31998;48.798;15.066;2023-02-01T06:32:17;2.13;;;1.70;;
46266;SDS011;31998;48.798;15.066;2023-02-01T06:34:42;1.50;;;1.43;;
46266;SDS011;31998;48.798;15.066;2023-02-01T06:37:08;1.60;;;1.50;;
46266;SDS011;31998;48.798;15.066;2023-02-01T06:39:36;2.20;;;1.40;;
46266;SDS011;31998;48.798;15.066;2023-02-01T06:42:01;1.70;;;1.60;;
46266;SDS011;31998;48.798;15.066;2023-02-01T06:44:27;2.00;;;1.50;;
46266;SDS011;31998;48.798;15.066;2023-02-01T06:46:52;2.77;;;2.10;;
46266;SDS011;31998;48.798;15.066;2023-02-01T06:49:18;2.37;;;2.17;;
46266;SDS011;31998;48.798;15.066;2023-02-01T06:51:44;5.10;;;1.17;;
46266;SDS011;31998;48.798;15.066;2023-02-01T06:54:10;2.80;;;1.40;;
46266;SDS011;31998;48.798;15.066;2023-02-01T06:56:38;2.07;;;2.03;;
46266;SDS011;31998;48.798;15.066;2023-02-01T06:59:04;3.03;;;1.57;;
46266;SDS011;31998;48.798;15.066;2023-02-01T07:01:30;1.80;;;1.70;;
46266;SDS011;31998;48.798;15.066;2023-02-01T07:03:55;1.60;;;1.60;;
46266;SDS011;31998;48.798;15.066;2023-02-01T07:06:20;1.87;;;1.37;;
46266;SDS011;31998;48.798;15.066;2023-02-01T07:08:46;2.00;;;1.90;;
46266;SDS011;31998;48.798;15.066;2023-02-01T07:11:12;1.40;;;1.40;;
46266;SDS011;31998;48.798;15.066;2023-02-01T07:13:39;0.97;;;0.97;;
46266;SDS011;31998;48.798;15.066;2023-02-01T07:16:05;3.07;;;1.53;;
46266;SDS011;31998;48.798;15.066;2023-02-01T07:18:34;2.80;;;2.60;;
46266;SDS011;31998;48.798;15.066;2023-02-01T07:20:59;1.50;;;1.40;;
46266;SDS011;31998;48.798;15.066;2023-02-01T07:23:25;1.37;;;1.37;;
46266;SDS011;31998;48.798;15.066;2023-02-01T07:25:58;1.63;;;1.53;;
46266;SDS011;31998;48.798;15.066;2023-02-01T07:28:25;4.03;;;1.60;;
46266;SDS011;31998;48.798;15.066;2023-02-01T07:30:51;3.13;;;2.93;;
46266;SDS011;31998;48.798;15.066;2023-02-01T07:33:20;3.37;;;2.80;;
46266;SDS011;31998;48.798;15.066;2023-02-01T07:35:48;2.77;;;2.57;;
46266;SDS011;31998;48.798;15.066;2023-02-01T07:38:14;2.40;;;2.20;;
46266;SDS011;31998;48.798;15.066;2023-02-01T07:40:40;3.37;;;2.70;;
46266;SDS011;31998;48.798;15.066;2023-02-01T07:43:06;2.20;;;1.53;;
46266;SDS011;31998;48.798;15.066;2023-02-01T07:45:32;2.17;;;1.53;;
46266;SDS011;31998;48.798;15.066;2023-02-01T07:48:00;2.30;;;2.20;;
46266;SDS011;31998;48.798;15.066;2023-02-01T07:50:26;2.37;;;1.83;;
46266;SDS011;31998;48.798;15.066;2023-02-01T07:52:52;2.30;;;2.20;;
46266;SDS011;31998;48.798;15.066;2023-02-01T07:55:18;1.20;;;1.20;;
46266;SDS011;31998;48.798;15.066;2023-02-01T07:57:44;1.40;;;1.30;;
46266;SDS011;31998;48.798;15.066;2023-02-01T08:00:10;1.47;;;1.37;;
46266;SDS011;31998;48.798;15.066;2023-02-01T08:02:57;1.10;;;1.10;;
46266;SDS011;31998;48.798;15.066;2023-02-01T08:05:26;3.93;;;1.37;;
46266;SDS011;31998;48.798;15.066;2023-02-01T08:07:52;1.37;;;1.27;;
46266;SDS011;31998;48.798;15.066;2023-02-01T08:10:18;2.00;;;1.80;;
46266;SDS011;31998;48.798;15.066;2023-02-01T08:12:44;1.70;;;1.70;;
46266;SDS011;31998;48.798;15.066;2023-02-01T08:15:14;1.80;;;1.70;;
46266;SDS011;31998;48.798;15.066;2023-02-01T08:17:41;4.10;;;3.80;;
46266;SDS011;31998;48.798;15.066;2023-02-01T08:20:11;1.80;;;1.80;;
46266;SDS011;31998;48.798;15.066;2023-02-01T08:22:38;2.43;;;2.23;;
46266;SDS011;31998;48.798;15.066;2023-02-01T08:25:04;1.03;;;1.03;;
46266;SDS011;31998;48.798;15.066;2023-02-01T08:27:31;1.40;;;1.40;;
46266;SDS011;31998;48.798;15.066;2023-02-01T08:29:57;1.60;;;1.60;;
46266;SDS011;31998;48.798;15.066;2023-02-01T08:32:24;2.40;;;1.87;;
46266;SDS011;31998;48.798;15.066;2023-02-01T08:34:52;1.50;;;1.50;;
46266;SDS011;31998;48.798;15.066;2023-02-01T08:37:17;1.80;;;1.70;;
46266;SDS011;31998;48.798;15.066;2023-02-01T08:39:43;1.30;;;1.10;;
46266;SDS011;31998;48.798;15.066;2023-02-01T08:42:09;1.90;;;1.80;;
46266;SDS011;31998;48.798;15.066;2023-02-01T08:44:53;1.57;;;1.57;;
46266;SDS011;31998;48.798;15.066;2023-02-01T08:47:19;1.80;;;1.70;;
46266;SDS011;31998;48.798;15.066;2023-02-01T08:49:44;1.53;;;1.53;;
46266;SDS011;31998;48.798;15.066;2023-02-01T08:52:09;1.27;;;1.23;;
46266;SDS011;31998;48.798;15.066;2023-02-01T08:54:35;0.90;;;0.90;;
46266;SDS011;31998;48.798;15.066;2023-02-01T08:57:00;1.20;;;1.20;;
46266;SDS011;31998;48.798;15.066;2023-02-01T08:59:26;0.83;;;0.83;;
46266;SDS011;31998;48.798;15.066;2023-02-01T09:01:51;1.10;;;1.10;;
46266;SDS011;31998;48.798;15.066;2023-02-01T09:04:17;0.80;;;0.80;;
46266;SDS011;31998;48.798;15.066;2023-02-01T09:06:42;1.03;;;0.97;;
46266;SDS011;31998;48.798;15.066;2023-02-01T09:09:07;1.10;;;1.10;;
46266;SDS011;31998;48.798;15.066;2023-02-01T09:11:33;1.47;;;1.20;;
46266;SDS011;31998;48.798;15.066;2023-02-01T09:13:58;1.37;;;0.97;;
46266;SDS011;31998;48.798;15.066;2023-02-01T09:16:24;1.47;;;1.30;;
46266;SDS011;31998;48.798;15.066;2023-02-01T09:18:49;0.87;;;0.87;;
46266;SDS011;31998;48.798;15.066;2023-02-01T09:21:15;1.60;;;1.50;;
46266;SDS011;31998;48.798;15.066;2023-02-01T09:23:40;1.10;;;1.10;;
46266;SDS011;31998;48.798;15.066;2023-02-01T09:26:05;0.90;;;0.90;;
46266;SDS011;31998;48.798;15.066;2023-02-01T09:28:31;0.90;;;0.90;;
46266;SDS011;31998;48.798;15.066;2023-02-01T09:30:57;0.90;;;0.90;;
46266;SDS011;31998;48.798;15.066;2023-02-01T09:33:24;1.13;;;1.13;;
46266;SDS011;31998;48.798;15.066;2023-02-01T09:35:57;0.90;;;0.90;;
46266;SDS011;31998;48.798;15.066;2023-02-01T09:38:24;3.17;;;2.90;;
46266;SDS011;31998;48.798;15.066;2023-02-01T09:40:50;4.63;;;1.93;;
46266;SDS011;31998;48.798;15.066;2023-02-01T09:43:21;1.17;;;1.17;;
46266;SDS011;31998;48.798;15.066;2023-02-01T09:48:57;1.20;;;0.87;;
46266;SDS011;31998;48.798;15.066;2023-02-01T09:51:27;1.90;;;1.90;;
46266;SDS011;31998;48.798;15.066;2023-02-01T09:56:47;1.10;;;1.10;;
46266;SDS011;31998;48.798;15.066;2023-02-01T10:01:51;1.00;;;1.00;;
46266;SDS011;31998;48.798;15.066;2023-02-01T10:04:17;1.47;;;1.47;;
46266;SDS011;31998;48.798;15.066;2023-02-01T10:09:59;5.47;;;4.97;;
46266;SDS011;31998;48.798;15.066;2023-02-01T10:18:00;3.07;;;2.97;;
46266;SDS011;31998;48.798;15.066;2023-02-01T10:20:36;1.87;;;1.77;;
46266;SDS011;31998;48.798;15.066;2023-02-01T10:26:16;2.00;;;1.77;;
46266;SDS011;31998;48.798;15.066;2023-02-01T10:28:55;3.30;;;0.80;;
46266;SDS011;31998;48.798;15.066;2023-02-01T10:31:28;2.40;;;1.90;;
46266;SDS011;31998;48.798;15.066;2023-02-01T10:33:56;1.57;;;1.23;;
46266;SDS011;31998;48.798;15.066;2023-02-01T10:36:31;0.80;;;0.77;;
46266;SDS011;31998;48.798;15.066;2023-02-01T10:39:01;0.90;;;0.87;;
46266;SDS011;31998;48.798;15.066;2023-02-01T10:41:38;0.87;;;0.87;;
46266;SDS011;31998;48.798;15.066;2023-02-01T10:44:07;1.07;;;1.07;;
46266;SDS011;31998;48.798;15.066;2023-02-01T10:46:39;1.03;;;0.93;;
46266;SDS011;31998;48.798;15.066;2023-02-01T10:49:04;3.83;;;1.40;;
46266;SDS011;31998;48.798;15.066;2023-02-01T10:51:42;1.63;;;0.70;;
46266;SDS011;31998;48.798;15.066;2023-02-01T10:54:19;2.07;;;1.67;;
46266;SDS011;31998;48.798;15.066;2023-02-01T10:56:46;1.80;;;1.27;;
46266;SDS011;31998;48.798;15.066;2023-02-01T10:59:15;4.47;;;2.87;;
46266;SDS011;31998;48.798;15.066;2023-02-01T11:01:49;3.87;;;2.57;;
46266;SDS011;31998;48.798;15.066;2023-02-01T11:04:16;3.37;;;2.90;;
46266;SDS011;31998;48.798;15.066;2023-02-01T11:06:52;2.87;;;1.60;;
46266;SDS011;31998;48.798;15.066;2023-02-01T11:09:30;1.83;;;1.70;;
46266;SDS011;31998;48.798;15.066;2023-02-01T11:12:10;1.50;;;1.37;;
46266;SDS011;31998;48.798;15.066;2023-02-01T11:14:48;4.17;;;1.33;;
46266;SDS011;31998;48.798;15.066;2023-02-01T11:19:38;10.43;;;3.60;;
46266;SDS011;31998;48.798;15.066;2023-02-01T11:22:08;6.10;;;4.50;;
46266;SDS011;31998;48.798;15.066;2023-02-01T11:24:36;11.53;;;7.87;;
46266;SDS011;31998;48.798;15.066;2023-02-01T11:27:05;12.17;;;9.10;;
46266;SDS011;31998;48.798;15.066;2023-02-01T11:29:39;6.10;;;5.37;;
46266;SDS011;31998;48.798;15.066;2023-02-01T11:32:08;4.03;;;3.20;;
46266;SDS011;31998;48.798;15.066;2023-02-01T11:34:38;2.93;;;2.60;;
46266;SDS011;31998;48.798;15.066;2023-02-01T11:37:42;1.33;;;0.97;;
46266;SDS011;31998;48.798;15.066;2023-02-01T11:43:00;2.90;;;2.10;;
46266;SDS011;31998;48.798;15.066;2023-02-01T11:45:39;3.50;;;1.37;;
46266;SDS011;31998;48.798;15.066;2023-02-01T11:48:08;3.37;;;1.50;;
46266;SDS011;31998;48.798;15.066;2023-02-01T12:12:40;1.10;;;1.00;;
46266;SDS011;31998;48.798;15.066;2023-02-01T12:17:57;1.20;;;1.20;;
46266;SDS011;31998;48.798;15.066;2023-02-01T12:20:52;2.03;;;1.10;;
46266;SDS011;31998;48.798;15.066;2023-02-01T12:23:41;3.60;;;2.17;;
46266;SDS011;31998;48.798;15.066;2023-02-01T12:32:20;4.47;;;2.33;;
46266;SDS011;31998;48.798;15.066;2023-02-01T12:35:09;1.33;;;1.30;;
46266;SDS011;31998;48.798;15.066;2023-02-01T12:40:28;3.50;;;3.20;;
46266;SDS011;31998;48.798;15.066;2023-02-01T12:43:11;8.33;;;5.27;;
46266;SDS011;31998;48.798;15.066;2023-02-01T12:45:48;2.73;;;2.40;;
46266;SDS011;31998;48.798;15.066;2023-02-01T12:51:15;4.77;;;4.10;;
46266;SDS011;31998;48.798;15.066;2023-02-01T12:53:51;3.20;;;1.70;;
46266;SDS011;31998;48.798;15.066;2023-02-01T12:56:25;2.37;;;1.83;;
46266;SDS011;31998;48.798;15.066;2023-02-01T12:59:03;4.70;;;3.40;;
46266;SDS011;31998;48.798;15.066;2023-02-01T13:01:37;1.20;;;1.10;;
46266;SDS011;31998;48.798;15.066;2023-02-01T13:04:10;1.20;;;1.07;;
46266;SDS011;31998;48.798;15.066;2023-02-01T13:06:43;1.13;;;0.90;;
46266;SDS011;31998;48.798;15.066;2023-02-01T13:09:18;2.20;;;1.40;;
46266;SDS011;31998;48.798;15.066;2023-02-01T13:11:50;0.80;;;0.70;;
46266;SDS011;31998;48.798;15.066;2023-02-01T13:17:06;1.73;;;1.60;;
46266;SDS011;31998;48.798;15.066;2023-02-01T13:19:48;0.70;;;0.70;;
46266;SDS011;31998;48.798;15.066;2023-02-01T13:22:29;0.77;;;0.77;;
46266;SDS011;31998;48.798;15.066;2023-02-01T13:25:43;2.13;;;1.03;;
46266;SDS011;31998;48.798;15.066;2023-02-01T13:27:49;1.77;;;0.77;;
46266;SDS011;31998;48.798;15.066;2023-02-01T13:30:19;3.13;;;0.80;;
46266;SDS011;31998;48.798;15.066;2023-02-01T13:38:37;0.47;;;0.47;;
46266;SDS011;31998;48.798;15.066;2023-02-01T13:43:56;0.87;;;0.83;;
46266;SDS011;31998;48.798;15.066;2023-02-01T13:46:25;0.80;;;0.80;;
46266;SDS011;31998;48.798;15.066;2023-02-01T13:48:55;0.70;;;0.70;;
46266;SDS011;31998;48.798;15.066;2023-02-01T13:51:47;1.57;;;1.10;;
46266;SDS011;31998;48.798;15.066;2023-02-01T13:54:32;3.60;;;1.00;;
46266;SDS011;31998;48.798;15.066;2023-02-01T13:57:02;2.57;;;1.20;;
46266;SDS011;31998;48.798;15.066;2023-02-01T13:59:36;1.40;;;1.40;;
46266;SDS011;31998;48.798;15.066;2023-02-01T14:05:01;2.20;;;1.20;;
46266;SDS011;31998;48.798;15.066;2023-02-01T14:07:28;3.67;;;1.40;;
46266;SDS011;31998;48.798;15.066;2023-02-01T14:09:53;1.47;;;0.90;;
46266;SDS011;31998;48.798;15.066;2023-02-01T14:15:17;2.03;;;0.90;;
46266;SDS011;31998;48.798;15.066;2023-02-01T14:17:50;1.30;;;0.83;;
46266;SDS011;31998;48.798;15.066;2023-02-01T14:23:12;2.43;;;1.90;;
46266;SDS011;31998;48.798;15.066;2023-02-01T14:25:40;2.27;;;1.97;;
46266;SDS011;31998;48.798;15.066;2023-02-01T14:28:10;0.83;;;0.83;;
46266;SDS011;31998;48.798;15.066;2023-02-01T14:30:42;1.13;;;0.77;;
46266;SDS011;31998;48.798;15.066;2023-02-01T14:33:12;1.10;;;1.00;;
46266;SDS011;31998;48.798;15.066;2023-02-01T14:35:52;2.43;;;0.67;;
46266;SDS011;31998;48.798;15.066;2023-02-01T14:38:29;1.17;;;1.17;;
46266;SDS011;31998;48.798;15.066;2023-02-01T14:41:10;5.57;;;0.70;;
46266;SDS011;31998;48.798;15.066;2023-02-01T14:49:37;2.63;;;1.63;;
46266;SDS011;31998;48.798;15.066;2023-02-01T14:52:13;6.93;;;1.60;;
46266;SDS011;31998;48.798;15.066;2023-02-01T14:54:49;1.93;;;1.50;;
46266;SDS011;31998;48.798;15.066;2023-02-01T14:57:19;1.83;;;0.77;;
46266;SDS011;31998;48.798;15.066;2023-02-01T14:59:49;0.73;;;0.73;;
46266;SDS011;31998;48.798;15.066;2023-02-01T15:02:25;1.27;;;0.83;;
46266;SDS011;31998;48.798;15.066;2023-02-01T15:04:55;1.07;;;1.00;;
46266;SDS011;31998;48.798;15.066;2023-02-01T15:07:21;1.30;;;1.20;;
46266;SDS011;31998;48.798;15.066;2023-02-01T15:09:49;3.23;;;1.00;;
46266;SDS011;31998;48.798;15.066;2023-02-01T15:12:17;1.13;;;1.03;;
46266;SDS011;31998;48.798;15.066;2023-02-01T15:15:11;1.07;;;1.07;;
46266;SDS011;31998;48.798;15.066;2023-02-01T15:17:54;1.43;;;1.43;;
46266;SDS011;31998;48.798;15.066;2023-02-01T15:20:27;0.77;;;0.77;;
46266;SDS011;31998;48.798;15.066;2023-02-01T15:25:26;4.37;;;1.10;;
46266;SDS011;31998;48.798;15.066;2023-02-01T15:27:54;3.03;;;1.30;;
46266;SDS011;31998;48.798;15.066;2023-02-01T15:32:50;1.37;;;1.13;;
46266;SDS011;31998;48.798;15.066;2023-02-01T15:35:32;1.60;;;0.93;;
46266;SDS011;31998;48.798;15.066;2023-02-01T15:41:07;2.83;;;1.10;;
46266;SDS011;31998;48.798;15.066;2023-02-01T15:46:31;4.17;;;1.33;;
46266;SDS011;31998;48.798;15.066;2023-02-01T15:49:00;3.57;;;1.30;;
46266;SDS011;31998;48.798;15.066;2023-02-01T15:51:27;2.53;;;1.27;;
46266;SDS011;31998;48.798;15.066;2023-02-01T15:53:59;3.83;;;1.20;;
46266;SDS011;31998;48.798;15.066;2023-02-01T15:56:28;17.47;;;1.77;;
46266;SDS011;31998;48.798;15.066;2023-02-01T15:58:59;5.87;;;1.43;;
46266;SDS011;31998;48.798;15.066;2023-02-01T16:01:26;1.50;;;1.40;;
46266;SDS011;31998;48.798;15.066;2023-02-01T16:06:53;2.03;;;1.57;;
46266;SDS011;31998;48.798;15.066;2023-02-01T16:09:32;0.80;;;0.80;;
46266;SDS011;31998;48.798;15.066;2023-02-01T16:12:03;2.67;;;1.30;;
46266;SDS011;31998;48.798;15.066;2023-02-01T16:14:29;1.03;;;1.03;;
46266;SDS011;31998;48.798;15.066;2023-02-01T16:16:55;4.80;;;1.67;;
46266;SDS011;31998;48.798;15.066;2023-02-01T16:19:22;5.03;;;2.33;;
46266;SDS011;31998;48.798;15.066;2023-02-01T16:21:52;4.77;;;1.30;;
46266;SDS011;31998;48.798;15.066;2023-02-01T16:24:18;4.67;;;1.63;;
46266;SDS011;31998;48.798;15.066;2023-02-01T16:26:44;5.03;;;1.40;;
46266;SDS011;31998;48.798;15.066;2023-02-01T16:29:09;4.23;;;1.53;;
46266;SDS011;31998;48.798;15.066;2023-02-01T16:31:36;4.37;;;1.67;;
46266;SDS011;31998;48.798;15.066;2023-02-01T16:34:03;2.20;;;2.10;;
46266;SDS011;31998;48.798;15.066;2023-02-01T16:36:30;7.57;;;4.33;;
46266;SDS011;31998;48.798;15.066;2023-02-01T16:38:56;11.27;;;5.67;;
46266;SDS011;31998;48.798;15.066;2023-02-01T16:41:22;7.20;;;4.67;;
46266;SDS011;31998;48.798;15.066;2023-02-01T16:43:49;12.80;;;6.40;;
46266;SDS011;31998;48.798;15.066;2023-02-01T16:46:17;10.93;;;5.73;;
46266;SDS011;31998;48.798;15.066;2023-02-01T16:48:50;14.43;;;7.90;;
46266;SDS011;31998;48.798;15.066;2023-02-01T16:51:17;12.83;;;4.33;;
46266;SDS011;31998;48.798;15.066;2023-02-01T16:53:43;4.80;;;4.10;;
46266;SDS011;31998;48.798;15.066;2023-02-01T16:56:17;3.93;;;1.90;;
46266;SDS011;31998;48.798;15.066;2023-02-01T16:59:02;15.97;;;4.77;;
46266;SDS011;31998;48.798;15.066;2023-02-01T17:01:27;3.40;;;2.63;;
46266;SDS011;31998;48.798;15.066;2023-02-01T17:03:53;4.43;;;3.23;;
46266;SDS011;31998;48.798;15.066;2023-02-01T17:06:20;4.83;;;4.43;;